Georgia State University, Georgia
Current Conditions -  °F | °C
As of 3:52 PM on Tuesday 21 Oct 2014 (Local Time) from KATL Reporting Station
Few Clouds Few Clouds  
Wind Chill: 76°   Ceiling: Unl
Heat Index: 76°   Visibility: 10mi
Dew Point: 51°   Wind: 17mph
Humidity: 42%   Direction: 300°WNW
Pressure: 29.95"   Gusts: 23mph
Location:  33.7534°N, 84.3891°W
Report Text: KATL 211952Z 30015G20KT 10SM FEW050 24/11 A2995 RMK AO2 SLP138 T02440106
Loading
Personal Weather Stations






























Interactive Weather Map
Tropical Storm Tracking
New forecast layout! Learn more

10-Day Weather Forecast

Advertisements
Track Severe Weather on mobile